Dayton, OH (45433)

11:33 PM EDT on March 23, 2017 (GMT -0400)
Tatooine | | Change Station

Elev 866 ft 39.80 °N, 84.01 °W | Updated 1 minute ago

Overcast
Overcast
47.7 °F
Feels Like 48 °F
N
0.0
Wind Variable Wind from SSE

Today
High -- | Low -- °F
--% Chance of Precip.
Yesterday
High -- | Low -- °F
Precip. -- in
Pressure 30.24 in
Visibility 10.0 miles
Clouds Few 4800 ft
Mostly Cloudy 7500 ft
Overcast 10000 ft
Windchill 48 °F
Dew Point 33 °F
Humidity 57%
Rainfall 0.00 in
Snow Depth Not available.
7:34 AM 7:51 PM
Waning Crescent, 18% visible
METAR KFFO 240258Z AUTO 16006KT 10SM FEW048 BKN075 OVC100 10/M03 A3021 RMK AO2 SLP238 T01021030 56014
Pressure 30.24 in
Visibility 10.0 miles
Clouds Few 4800 ft
Mostly Cloudy 7500 ft
Overcast 10000 ft
Windchill 48 °F
Dew Point 33 °F
Humidity 57%
Rainfall 0.00 in
Snow Depth Not available.
7:34 AM 7:51 PM
Waning Crescent, 18% visible
METAR KFFO 240258Z AUTO 16006KT 10SM FEW048 BKN075 OVC100 10/M03 A3021 RMK AO2 SLP238 T01021030 56014

Get Severe Weather Alerts

Thanks for signing up!

Be on the lookout for a verification email in your inbox.

You'll start receiving the daily forecast at 8 AM.

×

10-Day Weather Forecast

Almanac

Astronomy

Mar. 23, 2017 Rise Set
Actual Time
Civil Twilight
Nautical Twilight
Astronomical Twilight
Moon
Length of Visible Light
Length of Day
Tomorrow will be .
, % of the Moon is Illuminated

Today's Extremes

State Highs State Lows

Community

WunderPhotos

Upload Photos

1,962,540 photos uploaded!

WunderBlog® & News

Nearby

Air Quality

  Air Quality AQ Index Pollutant
Not available.

Snow Depth

Station Depth Elevation

Earthquake Activity

City Distance Mag. Time & Date
Minimum magnitude displayed is 2.5.

Earthquake Activity

City Distance Mag. Time & Date
Minimum magnitude displayed is 2.5.

Coastal Water Temperatures

Place Temperature

Stations

Nearby Weather Stations

Station Location Temp. Windchill Dew Point Humidity Wind Precip. Elev Updated Type
                   

Watches & Warnings

There are currently no watches in effect.